createdAt,value
2018-06-16T00:01:40.010Z,69.07
2018-06-16T00:04:09.259Z,69.07
2018-06-16T00:06:38.428Z,69.06
2018-06-16T00:09:09.187Z,69.60
2018-06-16T00:11:38.539Z,69.41
2018-06-16T00:14:07.725Z,69.87
2018-06-16T00:16:36.874Z,70.04
2018-06-16T00:19:05.996Z,69.66
2018-06-16T00:21:35.238Z,69.87
2018-06-16T00:24:04.467Z,69.84
2018-06-16T00:26:33.637Z,70.14
2018-06-16T00:29:02.801Z,70.60
2018-06-16T00:31:31.975Z,70.76
2018-06-16T00:34:01.219Z,71.45
2018-06-16T00:36:30.447Z,71.24
2018-06-16T00:38:59.636Z,71.63
2018-06-16T00:41:28.830Z,72.21
2018-06-16T00:43:57.991Z,71.88
2018-06-16T00:46:27.175Z,72.25
2018-06-16T00:48:56.328Z,72.02
2018-06-16T00:51:25.560Z,72.79
2018-06-16T00:53:54.720Z,73.10
2018-06-16T00:56:23.900Z,72.93
2018-06-16T00:58:53.110Z,73.25
2018-06-16T01:01:22.273Z,73.69
2018-06-16T01:03:51.521Z,73.83
2018-06-16T01:06:20.695Z,73.84
2018-06-16T01:08:49.874Z,73.84
2018-06-16T01:11:19.166Z,73.93
2018-06-16T01:13:49.049Z,74.31
2018-06-16T01:16:18.694Z,74.33
2018-06-16T01:18:47.889Z,74.23
2018-06-16T01:21:17.110Z,74.22
2018-06-16T01:23:46.331Z,74.89
2018-06-16T01:26:15.529Z,74.55
2018-06-16T01:28:44.723Z,75.38
2018-06-16T01:31:13.903Z,75.23
2018-06-16T01:33:43.084Z,75.42
2018-06-16T01:36:12.247Z,75.24
2018-06-16T01:38:41.395Z,75.02
2018-06-16T01:41:10.560Z,75.30
2018-06-16T01:43:39.744Z,75.86
2018-06-16T01:46:09.062Z,75.82
2018-06-16T01:48:38.369Z,76.06
2018-06-16T01:51:07.503Z,75.57
2018-06-16T01:53:36.683Z,75.45
2018-06-16T01:56:05.990Z,75.19
2018-06-16T01:58:35.276Z,74.78
2018-06-16T02:01:04.435Z,74.56
2018-06-16T02:03:33.665Z,75.76
2018-06-16T02:06:02.862Z,75.61
2018-06-16T02:08:32.040Z,75.97
2018-06-16T02:11:01.256Z,76.43
2018-06-16T02:13:30.467Z,77.10
2018-06-16T02:15:59.681Z,77.23
2018-06-16T02:18:28.866Z,78.13
2018-06-16T02:20:58.786Z,78.00
2018-06-16T02:23:28.096Z,78.61
2018-06-16T02:25:57.291Z,78.37
2018-06-16T02:28:26.479Z,78.80
2018-06-16T02:30:55.708Z,78.93
2018-06-16T02:33:25.573Z,79.13
2018-06-16T02:35:55.053Z,79.36
2018-06-16T02:38:24.320Z,79.87
2018-06-16T02:40:53.582Z,80.41
2018-06-16T02:43:22.883Z,80.19
2018-06-16T02:45:52.123Z,80.31
2018-06-16T02:48:22.011Z,81.47
2018-06-16T02:50:51.219Z,81.29
2018-06-16T02:53:20.424Z,81.34
2018-06-16T02:55:49.654Z,82.04
2018-06-16T02:58:18.804Z,82.72
2018-06-16T03:00:48.343Z,82.57
2018-06-16T03:03:17.881Z,82.87
2018-06-16T03:05:47.149Z,83.32
2018-06-16T03:08:16.342Z,83.47
2018-06-16T03:10:45.491Z,81.56
2018-06-16T03:13:14.730Z,80.83
2018-06-16T03:15:43.923Z,80.29
2018-06-16T03:18:13.195Z,78.84
2018-06-16T03:20:42.391Z,79.20
2018-06-16T03:23:11.618Z,78.65
2018-06-16T03:25:40.773Z,77.98
2018-06-16T03:28:10.367Z,77.48
2018-06-16T03:30:39.551Z,77.06
2018-06-16T03:33:08.647Z,76.45
2018-06-16T03:35:37.738Z,76.68
2018-06-16T03:38:06.949Z,76.15
2018-06-16T03:40:36.150Z,76.43
2018-06-16T03:43:05.315Z,78.27
2018-06-16T03:45:34.563Z,79.68
2018-06-16T03:48:03.742Z,80.10
2018-06-16T03:50:33.003Z,80.86
2018-06-16T03:53:02.238Z,81.28
2018-06-16T03:55:31.387Z,81.80
2018-06-16T03:58:00.562Z,81.81
2018-06-16T04:00:30.143Z,82.59
2018-06-16T04:02:59.336Z,82.76
2018-06-16T04:05:28.556Z,83.26
2018-06-16T04:07:57.712Z,82.86
2018-06-16T04:10:26.931Z,82.35
2018-06-16T04:12:56.093Z,82.06
2018-06-16T04:15:42.422Z,81.94
2018-06-16T04:18:14.294Z,81.49
2018-06-16T04:20:43.446Z,80.64
2018-06-16T04:23:12.577Z,80.34
2018-06-16T04:25:43.504Z,79.30
2018-06-16T04:28:12.694Z,78.95
2018-06-16T04:30:41.813Z,78.33
2018-06-16T04:33:11.001Z,78.09
2018-06-16T04:35:40.210Z,78.08
2018-06-16T04:38:09.756Z,78.79
2018-06-16T04:40:38.909Z,79.22
2018-06-16T04:43:08.180Z,79.19
2018-06-16T04:45:37.473Z,79.88
2018-06-16T04:48:07.683Z,80.18
2018-06-16T04:50:36.887Z,79.82
2018-06-16T04:53:06.181Z,80.27
2018-06-16T04:55:35.314Z,80.57
2018-06-16T04:58:04.500Z,78.00
2018-06-16T05:00:33.632Z,76.42
2018-06-16T05:03:02.742Z,75.67
2018-06-16T05:05:31.961Z,75.63
2018-06-16T05:08:01.133Z,74.62
2018-06-16T05:10:48.820Z,75.48
2018-06-16T05:13:27.523Z,73.46
2018-06-16T05:15:56.696Z,73.05
2018-06-16T05:18:26.071Z,74.13
2018-06-16T05:20:55.205Z,72.71
2018-06-16T05:23:24.359Z,73.14
2018-06-16T05:25:53.497Z,73.23
2018-06-16T05:28:22.692Z,72.83
2018-06-16T05:30:51.929Z,72.11
2018-06-16T05:33:21.103Z,72.52
2018-06-16T05:35:50.259Z,72.09
2018-06-16T05:38:19.557Z,71.52
2018-06-16T05:40:48.692Z,72.12
2018-06-16T05:43:17.825Z,72.56
2018-06-16T05:45:46.903Z,71.58
2018-06-16T05:48:16.282Z,70.60
2018-06-16T05:50:45.411Z,71.04
2018-06-16T05:53:14.583Z,72.20
2018-06-16T05:55:43.784Z,70.49
2018-06-16T05:58:13.409Z,70.70
2018-06-16T06:00:42.615Z,71.68
2018-06-16T06:03:11.747Z,70.61
2018-06-16T06:05:41.037Z,71.95
2018-06-16T06:08:10.201Z,71.64
2018-06-16T06:10:40.431Z,71.89
2018-06-16T06:13:09.643Z,71.61
2018-06-16T06:15:38.884Z,72.45
2018-06-16T06:18:08.055Z,72.36
2018-06-16T06:20:37.453Z,73.17
2018-06-16T06:23:06.654Z,72.93
2018-06-16T06:25:36.000Z,72.56
2018-06-16T06:28:05.167Z,73.24
2018-06-16T06:30:34.381Z,72.91
2018-06-16T06:33:03.654Z,73.16
2018-06-16T06:35:33.203Z,73.66
2018-06-16T06:38:03.093Z,73.01
2018-06-16T06:40:32.418Z,72.76
2018-06-16T06:43:01.589Z,72.58
2018-06-16T06:45:31.247Z,72.37
2018-06-16T06:48:00.495Z,71.46
2018-06-16T06:50:29.665Z,71.61
2018-06-16T06:52:59.023Z,71.34
2018-06-16T06:55:28.199Z,70.56
2018-06-16T06:57:57.963Z,70.56
2018-06-16T07:00:27.353Z,70.99
2018-06-16T07:02:56.943Z,73.40
2018-06-16T07:05:26.197Z,72.38
2018-06-16T07:07:55.560Z,71.26
2018-06-16T07:10:25.134Z,71.74
2018-06-16T07:12:54.538Z,71.78
2018-06-16T07:15:23.797Z,71.12
2018-06-16T07:17:53.207Z,71.21
2018-06-16T07:20:22.516Z,70.35
2018-06-16T07:22:51.850Z,69.57
2018-06-16T07:25:21.493Z,69.60
2018-06-16T07:27:50.716Z,69.27
2018-06-16T07:30:20.208Z,69.81
2018-06-16T07:32:49.412Z,69.15
2018-06-16T07:35:18.688Z,68.73
2018-06-16T07:37:48.015Z,68.32
2018-06-16T07:40:17.128Z,68.43
2018-06-16T07:42:46.353Z,68.08
2018-06-16T07:45:15.649Z,68.06
2018-06-16T07:47:45.606Z,68.04
2018-06-16T07:50:14.800Z,68.70
2018-06-16T07:52:44.093Z,67.03
2018-06-16T07:55:13.222Z,66.58
2018-06-16T07:57:42.356Z,66.30
2018-06-16T08:00:11.517Z,65.67
2018-06-16T08:02:40.688Z,65.00
2018-06-16T08:05:10.318Z,63.93
2018-06-16T08:07:39.425Z,64.10
2018-06-16T08:10:08.647Z,64.48
2018-06-16T08:12:37.810Z,63.95
2018-06-16T08:15:07.044Z,63.78
2018-06-16T08:17:36.264Z,63.43
2018-06-16T08:20:05.477Z,63.80
2018-06-16T08:22:34.739Z,63.79
2018-06-16T08:25:03.869Z,62.68
2018-06-16T08:27:33.072Z,62.97
2018-06-16T08:30:02.321Z,63.57
2018-06-16T08:32:31.564Z,63.47
2018-06-16T08:35:00.766Z,64.19
2018-06-16T08:37:29.954Z,64.38
2018-06-16T08:39:59.122Z,64.21
2018-06-16T08:42:28.424Z,62.23
2018-06-16T08:44:57.589Z,62.77
2018-06-16T08:47:26.813Z,62.22
2018-06-16T08:49:56.008Z,62.83
2018-06-16T08:52:25.223Z,62.32
2018-06-16T08:54:54.434Z,61.95
2018-06-16T08:57:23.602Z,62.04
2018-06-16T08:59:52.803Z,60.54
2018-06-16T09:02:22.000Z,60.43
2018-06-16T09:04:52.016Z,60.25
2018-06-16T09:07:21.156Z,60.21
2018-06-16T09:09:50.361Z,58.64
2018-06-16T09:12:19.527Z,58.49
2018-06-16T09:14:48.744Z,58.82
2018-06-16T09:17:24.617Z,57.24
2018-06-16T09:19:53.773Z,55.89
2018-06-16T09:22:22.961Z,53.91
2018-06-16T09:24:52.088Z,54.84
2018-06-16T09:27:21.278Z,52.83
2018-06-16T09:29:50.418Z,52.84
2018-06-16T09:32:19.753Z,54.81
2018-06-16T09:34:48.992Z,55.57
2018-06-16T09:37:18.209Z,55.07
2018-06-16T09:39:47.456Z,54.57
2018-06-16T09:42:18.145Z,53.89
2018-06-16T09:44:47.435Z,53.18
2018-06-16T09:47:17.086Z,52.05
2018-06-16T09:49:46.321Z,52.40
2018-06-16T09:52:15.623Z,52.70
2018-06-16T09:54:44.859Z,53.08
2018-06-16T09:57:14.046Z,51.87
2018-06-16T09:59:43.275Z,52.97
2018-06-16T10:02:12.477Z,53.45
2018-06-16T10:04:41.679Z,51.52
2018-06-16T10:07:10.862Z,49.20
2018-06-16T10:09:40.023Z,47.64
2018-06-16T10:12:09.437Z,46.92
2018-06-16T10:14:38.618Z,47.50
2018-06-16T10:17:07.919Z,48.01
2018-06-16T10:19:37.083Z,47.66
2018-06-16T10:22:06.421Z,48.45
2018-06-16T10:24:35.582Z,48.58
2018-06-16T10:27:04.813Z,47.92
2018-06-16T10:29:34.077Z,48.22
2018-06-16T10:32:03.438Z,46.61
2018-06-16T10:34:32.696Z,47.65
2018-06-16T10:37:01.946Z,47.13
2018-06-16T10:39:31.173Z,47.37
2018-06-16T10:42:00.424Z,46.07
2018-06-16T10:44:29.678Z,46.16
2018-06-16T10:46:58.936Z,47.20
2018-06-16T10:49:28.292Z,44.77
2018-06-16T10:51:57.544Z,43.62
2018-06-16T10:54:26.865Z,43.25
2018-06-16T10:56:56.112Z,42.02
2018-06-16T10:59:25.966Z,41.15
2018-06-16T11:01:55.195Z,41.32
2018-06-16T11:04:24.401Z,41.94
2018-06-16T11:06:53.584Z,41.73
2018-06-16T11:09:23.169Z,42.83
2018-06-16T11:11:52.418Z,43.13
2018-06-16T11:14:21.566Z,42.83
2018-06-16T11:16:51.898Z,42.72
2018-06-16T11:19:21.167Z,41.19
2018-06-16T11:21:50.343Z,42.23
2018-06-16T11:24:19.671Z,41.51
2018-06-16T11:26:48.908Z,41.72
2018-06-16T11:29:18.029Z,41.81
2018-06-16T11:31:47.340Z,40.90
2018-06-16T11:34:16.673Z,40.53
2018-06-16T11:36:46.405Z,40.45
2018-06-16T11:39:15.555Z,41.05
2018-06-16T11:41:44.747Z,41.38
2018-06-16T11:44:13.993Z,41.92
2018-06-16T11:46:43.214Z,41.49
2018-06-16T11:49:12.410Z,39.84
2018-06-16T11:51:41.614Z,39.35
2018-06-16T11:54:10.813Z,38.72
2018-06-16T11:56:39.916Z,40.18
2018-06-16T11:59:09.198Z,40.00
2018-06-16T12:01:38.313Z,41.36
2018-06-16T12:04:07.669Z,42.67
2018-06-16T12:06:36.921Z,42.33
2018-06-16T12:09:08.929Z,42.45
2018-06-16T12:11:38.143Z,43.56
2018-06-16T12:14:07.987Z,44.43
2018-06-16T12:16:37.797Z,44.85
2018-06-16T12:19:07.361Z,43.73
2018-06-16T12:21:37.375Z,44.40
2018-06-16T12:24:06.890Z,44.79
2018-06-16T12:26:36.150Z,45.93
2018-06-16T12:29:05.348Z,46.76
2018-06-16T12:31:34.570Z,47.60
2018-06-16T12:34:03.835Z,47.63
2018-06-16T12:36:33.069Z,48.23
2018-06-16T12:39:02.415Z,48.51
2018-06-16T12:41:31.667Z,48.73
2018-06-16T12:44:00.876Z,48.98
2018-06-16T12:46:30.147Z,48.60
2018-06-16T12:48:59.311Z,48.86
2018-06-16T12:51:28.814Z,49.18
2018-06-16T12:53:58.010Z,50.15
2018-06-16T12:56:27.392Z,49.90
2018-06-16T12:58:56.553Z,49.93
2018-06-16T13:01:25.717Z,49.42
2018-06-16T13:03:54.963Z,49.50
2018-06-16T13:06:24.132Z,50.16
2018-06-16T13:08:53.344Z,49.59
2018-06-16T13:11:22.561Z,49.68
2018-06-16T13:13:51.786Z,49.59
2018-06-16T13:16:20.931Z,49.44
2018-06-16T13:18:50.176Z,49.02
2018-06-16T13:21:19.457Z,48.89
2018-06-16T13:23:48.653Z,48.86
2018-06-16T13:26:17.863Z,47.89
2018-06-16T13:28:46.985Z,47.83
2018-06-16T13:31:16.181Z,47.11
2018-06-16T13:33:45.647Z,47.84
2018-06-16T13:36:14.873Z,47.30
2018-06-16T13:38:44.141Z,45.71
2018-06-16T13:41:13.329Z,42.99
2018-06-16T13:43:42.498Z,43.52
2018-06-16T13:46:11.694Z,41.52
2018-06-16T13:48:40.947Z,38.12
2018-06-16T13:51:10.163Z,39.48
2018-06-16T13:53:39.527Z,40.80
2018-06-16T13:56:08.727Z,41.40
2018-06-16T13:58:38.462Z,41.52
2018-06-16T14:01:07.884Z,39.21
2018-06-16T14:03:37.120Z,39.65
2018-06-16T14:06:06.330Z,38.76
2018-06-16T14:08:35.530Z,37.95
2018-06-16T14:11:04.836Z,38.60
2018-06-16T14:13:34.000Z,36.04
2018-06-16T14:16:03.216Z,36.79
2018-06-16T14:18:32.387Z,36.90
2018-06-16T14:21:01.639Z,36.80
2018-06-16T14:23:30.820Z,36.75
2018-06-16T14:26:00.020Z,34.57
2018-06-16T14:28:29.187Z,34.56
2018-06-16T14:30:58.401Z,35.34
2018-06-16T14:33:27.663Z,36.21
2018-06-16T14:35:56.821Z,37.11
2018-06-16T14:38:25.976Z,33.85
2018-06-16T14:40:55.163Z,34.66
2018-06-16T14:43:24.347Z,33.53
2018-06-16T14:45:53.507Z,34.81
2018-06-16T14:48:22.620Z,35.37
2018-06-16T14:50:51.846Z,32.49
2018-06-16T14:53:21.146Z,37.23
2018-06-16T14:55:50.517Z,34.92
2018-06-16T14:58:23.981Z,33.99
2018-06-16T15:00:53.468Z,34.17
2018-06-16T15:03:22.688Z,34.43
2018-06-16T15:05:52.294Z,36.06
2018-06-16T15:08:21.464Z,36.66
2018-06-16T15:10:51.525Z,40.13
2018-06-16T15:13:21.080Z,40.79
2018-06-16T15:15:50.317Z,41.67
2018-06-16T15:18:19.530Z,41.08
2018-06-16T15:20:48.707Z,44.69
2018-06-16T15:23:17.918Z,41.37
2018-06-16T15:25:47.034Z,43.93
2018-06-16T15:28:16.253Z,45.53
2018-06-16T15:30:45.621Z,42.21
2018-06-16T15:33:14.816Z,41.92
2018-06-16T15:35:44.082Z,42.62
2018-06-16T15:38:13.262Z,42.59
2018-06-16T15:40:42.966Z,41.60
2018-06-16T15:43:12.157Z,44.49
2018-06-16T15:45:41.413Z,43.85
2018-06-16T15:48:10.518Z,42.94
2018-06-16T15:50:39.691Z,43.17
2018-06-16T15:53:08.891Z,44.40
2018-06-16T15:55:38.137Z,42.94
2018-06-16T15:58:07.334Z,46.27
2018-06-16T16:00:36.557Z,45.25
2018-06-16T16:03:05.804Z,46.59
2018-06-16T16:05:35.026Z,46.17
2018-06-16T16:08:04.805Z,47.02
2018-06-16T16:10:33.946Z,54.65
2018-06-16T16:13:03.204Z,71.45
2018-06-16T16:15:32.890Z,84.68
2018-06-16T16:18:02.004Z,90.96
2018-06-16T16:20:31.236Z,97.85
2018-06-16T16:23:00.438Z,99.18
2018-06-16T16:25:29.632Z,100.00
2018-06-16T16:27:58.765Z,100.00
2018-06-16T16:30:27.960Z,100.00
2018-06-16T16:32:57.225Z,100.00
2018-06-16T16:35:26.392Z,100.00
2018-06-16T16:37:55.577Z,100.00
2018-06-16T16:40:25.454Z,100.00
2018-06-16T16:42:54.621Z,100.00
2018-06-16T16:45:23.821Z,100.00
2018-06-16T16:47:52.952Z,100.00
2018-06-16T16:50:22.750Z,100.00
2018-06-16T16:52:51.916Z,100.00
2018-06-16T16:55:21.195Z,100.00
2018-06-16T16:57:50.432Z,100.00
2018-06-16T17:00:19.581Z,100.00
2018-06-16T17:02:48.886Z,100.00
2018-06-16T17:05:18.087Z,100.00
2018-06-16T17:07:47.236Z,100.00
2018-06-16T17:10:16.404Z,100.00
2018-06-16T17:12:45.707Z,100.00
2018-06-16T17:15:14.913Z,100.00
2018-06-16T17:17:44.155Z,100.00
2018-06-16T17:20:13.322Z,100.00
2018-06-16T17:22:42.577Z,100.00
2018-06-16T17:25:11.919Z,100.00
2018-06-16T17:27:41.138Z,100.00
2018-06-16T17:30:10.294Z,100.00
2018-06-16T17:32:39.475Z,100.00
2018-06-16T17:35:08.790Z,100.00
2018-06-16T17:37:37.977Z,100.00
2018-06-16T17:40:08.316Z,100.00
2018-06-16T17:42:37.594Z,100.00
2018-06-16T17:45:06.863Z,100.00
2018-06-16T17:47:36.143Z,97.18
2018-06-16T17:50:11.815Z,96.61
2018-06-16T17:52:41.012Z,98.74
2018-06-16T17:55:10.286Z,99.46
2018-06-16T17:57:39.454Z,99.55
2018-06-16T18:00:08.700Z,100.00
2018-06-16T18:02:37.881Z,100.00
2018-06-16T18:05:07.107Z,100.00
2018-06-16T18:07:36.419Z,100.00
2018-06-16T18:10:06.239Z,100.00
2018-06-16T18:12:35.545Z,99.21
2018-06-16T18:15:05.035Z,99.62
2018-06-16T18:17:34.304Z,100.00
2018-06-16T18:20:04.051Z,100.00
2018-06-16T18:22:34.209Z,100.00
2018-06-16T18:25:03.430Z,100.00
2018-06-16T18:27:32.764Z,100.00
2018-06-16T18:30:01.961Z,100.00
2018-06-16T18:32:31.227Z,100.00
2018-06-16T18:35:00.485Z,100.00
2018-06-16T18:37:29.654Z,100.00
2018-06-16T18:39:58.823Z,100.00
2018-06-16T18:42:28.015Z,100.00
2018-06-16T18:44:57.250Z,100.00
2018-06-16T18:47:26.449Z,100.00
2018-06-16T18:49:55.823Z,100.00
2018-06-16T18:52:24.987Z,100.00
2018-06-16T18:54:54.415Z,100.00
2018-06-16T18:57:23.670Z,100.00
2018-06-16T18:59:52.959Z,100.00
2018-06-16T19:02:22.178Z,100.00
2018-06-16T19:04:51.322Z,90.57
2018-06-16T19:07:20.513Z,92.56
2018-06-16T19:09:49.671Z,85.54
2018-06-16T19:12:19.161Z,82.75
2018-06-16T19:14:48.442Z,84.58
2018-06-16T19:17:17.580Z,83.71
2018-06-16T19:19:46.795Z,81.56
2018-06-16T19:22:16.037Z,81.15
2018-06-16T19:24:45.252Z,82.73
2018-06-16T19:27:14.575Z,77.02
2018-06-16T19:29:43.739Z,76.84
2018-06-16T19:32:13.966Z,78.23
2018-06-16T19:34:43.245Z,74.86
2018-06-16T19:37:12.475Z,77.56
2018-06-16T19:39:41.787Z,78.74
2018-06-16T19:42:12.064Z,78.65
2018-06-16T19:44:41.337Z,78.93
2018-06-16T19:47:10.751Z,78.66
2018-06-16T19:49:39.983Z,79.92
2018-06-16T19:52:09.208Z,81.02
2018-06-16T19:54:38.402Z,80.25
2018-06-16T19:57:07.592Z,80.97
2018-06-16T19:59:36.875Z,81.85
2018-06-16T20:02:06.695Z,82.27
2018-06-16T20:04:36.550Z,81.82
2018-06-16T20:07:05.776Z,81.97
2018-06-16T20:09:35.017Z,81.86
2018-06-16T20:12:04.253Z,83.31
2018-06-16T20:14:33.520Z,83.71
2018-06-16T20:17:02.717Z,84.43
2018-06-16T20:19:32.082Z,83.49
2018-06-16T20:22:01.987Z,79.59
2018-06-16T20:24:31.494Z,81.63
2018-06-16T20:27:00.778Z,79.82
2018-06-16T20:29:30.084Z,79.73
2018-06-16T20:31:59.291Z,79.89
2018-06-16T20:34:28.501Z,80.00
2018-06-16T20:36:57.756Z,78.41
2018-06-16T20:39:26.968Z,77.19
2018-06-16T20:41:56.228Z,77.07
2018-06-16T20:44:25.440Z,77.93
2018-06-16T20:46:54.676Z,77.71
2018-06-16T20:49:23.934Z,75.15
2018-06-16T20:51:53.140Z,76.45
2018-06-16T20:54:23.432Z,77.48
2018-06-16T20:56:52.602Z,75.75
2018-06-16T20:59:22.015Z,74.90
2018-06-16T21:01:51.305Z,74.46
2018-06-16T21:04:20.741Z,75.11
2018-06-16T21:06:49.898Z,75.71
2018-06-16T21:09:19.163Z,75.99
2018-06-16T21:11:48.401Z,75.23
2018-06-16T21:14:17.608Z,76.00
2018-06-16T21:16:46.887Z,75.60
2018-06-16T21:19:16.111Z,75.93
2018-06-16T21:21:45.488Z,77.20
2018-06-16T21:24:14.811Z,76.13
2018-06-16T21:26:43.982Z,76.83
2018-06-16T21:29:13.384Z,76.77
2018-06-16T21:31:42.634Z,76.42
2018-06-16T21:34:11.866Z,77.87
2018-06-16T21:36:41.274Z,77.21
2018-06-16T21:39:11.090Z,78.07
2018-06-16T21:41:40.239Z,78.61
2018-06-16T21:44:09.514Z,77.36
2018-06-16T21:46:38.666Z,78.13
2018-06-16T21:49:08.218Z,76.94
2018-06-16T21:51:37.462Z,76.40
2018-06-16T21:54:06.741Z,77.90
2018-06-16T21:56:35.969Z,77.43
2018-06-16T21:59:05.112Z,77.94
2018-06-16T22:01:36.493Z,77.77
2018-06-16T22:04:06.207Z,78.01
2018-06-16T22:06:35.633Z,79.26
2018-06-16T22:09:08.341Z,78.71
2018-06-16T22:11:37.555Z,79.43
2018-06-16T22:14:06.878Z,80.03
2018-06-16T22:16:36.155Z,79.64
2018-06-16T22:19:05.379Z,80.28
2018-06-16T22:21:34.605Z,80.00
2018-06-16T22:24:03.955Z,80.45
2018-06-16T22:26:33.141Z,80.29
2018-06-16T22:29:02.289Z,81.47
2018-06-16T22:31:31.549Z,81.64
2018-06-16T22:34:00.804Z,81.42
2018-06-16T22:36:30.088Z,81.45
2018-06-16T22:38:59.295Z,80.31
2018-06-16T22:41:28.491Z,80.40
2018-06-16T22:43:57.767Z,81.48
2018-06-16T22:46:26.964Z,80.76
2018-06-16T22:48:56.289Z,81.47
2018-06-16T22:51:25.433Z,80.98
2018-06-16T22:53:54.662Z,81.15
2018-06-16T22:56:23.830Z,80.32
2018-06-16T22:58:53.039Z,79.20
2018-06-16T23:01:22.255Z,79.85
2018-06-16T23:03:51.425Z,79.32
2018-06-16T23:06:21.237Z,78.04
2018-06-16T23:08:50.437Z,78.04
2018-06-16T23:11:19.578Z,76.64
2018-06-16T23:13:48.790Z,76.66
2018-06-16T23:16:18.033Z,76.36
2018-06-16T23:18:47.736Z,77.30
2018-06-16T23:21:16.907Z,76.21
2018-06-16T23:23:46.159Z,75.62
2018-06-16T23:26:15.357Z,74.70
2018-06-16T23:28:44.629Z,74.75
2018-06-16T23:31:14.026Z,75.62
2018-06-16T23:33:43.233Z,74.40
2018-06-16T23:36:12.493Z,74.43
2018-06-16T23:38:41.766Z,74.42
2018-06-16T23:41:10.901Z,74.31
2018-06-16T23:43:40.043Z,73.24
2018-06-16T23:46:09.241Z,72.53
2018-06-16T23:48:38.396Z,72.83
2018-06-16T23:51:07.810Z,71.66
2018-06-16T23:53:37.077Z,71.50
2018-06-16T23:56:06.269Z,70.66
2018-06-16T23:58:35.426Z,69.32
